sensor_id;sensor_type;location;lat;lon;timestamp;P1;durP1;ratioP1;P2;durP2;ratioP2
801;SDS011;383;48.766;9.270;2023-06-24T00:01:40;7.93;;;4.80;;
801;SDS011;383;48.766;9.270;2023-06-24T00:04:06;12.33;;;5.33;;
801;SDS011;383;48.766;9.270;2023-06-24T00:06:33;9.70;;;5.50;;
801;SDS011;383;48.766;9.270;2023-06-24T00:09:02;8.40;;;5.30;;
801;SDS011;383;48.766;9.270;2023-06-24T00:11:29;10.13;;;4.70;;
801;SDS011;383;48.766;9.270;2023-06-24T00:13:57;8.37;;;5.37;;
801;SDS011;383;48.766;9.270;2023-06-24T00:16:23;7.57;;;5.10;;
801;SDS011;383;48.766;9.270;2023-06-24T00:18:52;7.10;;;4.80;;
801;SDS011;383;48.766;9.270;2023-06-24T00:21:19;11.03;;;5.40;;
801;SDS011;383;48.766;9.270;2023-06-24T00:23:47;6.50;;;4.57;;
801;SDS011;383;48.766;9.270;2023-06-24T00:26:14;7.67;;;4.73;;
801;SDS011;383;48.766;9.270;2023-06-24T00:28:42;7.80;;;4.40;;
801;SDS011;383;48.766;9.270;2023-06-24T00:31:10;6.70;;;4.77;;
801;SDS011;383;48.766;9.270;2023-06-24T00:33:37;8.63;;;5.20;;
801;SDS011;383;48.766;9.270;2023-06-24T00:36:04;10.93;;;5.07;;
801;SDS011;383;48.766;9.270;2023-06-24T00:38:33;9.10;;;5.10;;
801;SDS011;383;48.766;9.270;2023-06-24T00:41:00;8.97;;;5.37;;
801;SDS011;383;48.766;9.270;2023-06-24T00:43:27;7.13;;;4.83;;
801;SDS011;383;48.766;9.270;2023-06-24T00:45:55;7.23;;;4.33;;
801;SDS011;383;48.766;9.270;2023-06-24T00:48:24;6.77;;;4.83;;
801;SDS011;383;48.766;9.270;2023-06-24T00:50:50;10.20;;;5.50;;
801;SDS011;383;48.766;9.270;2023-06-24T00:53:17;6.70;;;4.70;;
801;SDS011;383;48.766;9.270;2023-06-24T00:55:49;7.57;;;4.77;;
801;SDS011;383;48.766;9.270;2023-06-24T00:58:17;7.40;;;4.90;;
801;SDS011;383;48.766;9.270;2023-06-24T01:00:46;7.50;;;4.80;;
801;SDS011;383;48.766;9.270;2023-06-24T01:03:21;8.27;;;5.30;;
801;SDS011;383;48.766;9.270;2023-06-24T01:05:50;8.67;;;6.00;;
801;SDS011;383;48.766;9.270;2023-06-24T01:08:17;8.60;;;5.73;;
801;SDS011;383;48.766;9.270;2023-06-24T01:10:47;9.60;;;5.00;;
801;SDS011;383;48.766;9.270;2023-06-24T01:13:15;9.20;;;5.10;;
801;SDS011;383;48.766;9.270;2023-06-24T01:15:41;9.43;;;5.20;;
801;SDS011;383;48.766;9.270;2023-06-24T01:18:10;9.33;;;5.87;;
801;SDS011;383;48.766;9.270;2023-06-24T01:20:47;12.27;;;4.80;;
801;SDS011;383;48.766;9.270;2023-06-24T01:26:21;9.33;;;5.73;;
801;SDS011;383;48.766;9.270;2023-06-24T01:29:09;8.20;;;4.90;;
801;SDS011;383;48.766;9.270;2023-06-24T01:31:52;7.10;;;5.20;;
801;SDS011;383;48.766;9.270;2023-06-24T01:34:24;9.87;;;5.40;;
801;SDS011;383;48.766;9.270;2023-06-24T01:36:56;12.37;;;5.77;;
801;SDS011;383;48.766;9.270;2023-06-24T01:39:29;9.10;;;5.60;;
801;SDS011;383;48.766;9.270;2023-06-24T01:42:00;9.17;;;5.77;;
801;SDS011;383;48.766;9.270;2023-06-24T01:44:31;7.90;;;5.37;;
801;SDS011;383;48.766;9.270;2023-06-24T01:47:00;8.33;;;5.80;;
801;SDS011;383;48.766;9.270;2023-06-24T01:49:30;13.03;;;5.37;;
801;SDS011;383;48.766;9.270;2023-06-24T01:51:58;10.80;;;5.90;;
801;SDS011;383;48.766;9.270;2023-06-24T01:54:26;8.87;;;5.83;;
801;SDS011;383;48.766;9.270;2023-06-24T01:56:57;9.97;;;5.70;;
801;SDS011;383;48.766;9.270;2023-06-24T01:59:26;8.03;;;5.70;;
801;SDS011;383;48.766;9.270;2023-06-24T02:01:55;10.00;;;5.40;;
801;SDS011;383;48.766;9.270;2023-06-24T02:04:24;10.67;;;5.20;;
801;SDS011;383;48.766;9.270;2023-06-24T02:06:55;8.80;;;5.40;;
801;SDS011;383;48.766;9.270;2023-06-24T02:09:26;9.60;;;6.27;;
801;SDS011;383;48.766;9.270;2023-06-24T02:11:55;8.60;;;6.10;;
801;SDS011;383;48.766;9.270;2023-06-24T02:14:23;6.90;;;4.80;;
801;SDS011;383;48.766;9.270;2023-06-24T02:16:52;9.90;;;5.10;;
801;SDS011;383;48.766;9.270;2023-06-24T02:19:22;9.00;;;5.67;;
801;SDS011;383;48.766;9.270;2023-06-24T02:21:53;10.17;;;5.47;;
801;SDS011;383;48.766;9.270;2023-06-24T02:24:22;12.63;;;5.67;;
801;SDS011;383;48.766;9.270;2023-06-24T02:26:49;7.73;;;5.10;;
801;SDS011;383;48.766;9.270;2023-06-24T02:29:17;9.20;;;5.47;;
801;SDS011;383;48.766;9.270;2023-06-24T02:31:44;9.23;;;5.20;;
801;SDS011;383;48.766;9.270;2023-06-24T02:34:11;8.13;;;6.13;;
801;SDS011;383;48.766;9.270;2023-06-24T02:36:39;8.43;;;5.70;;
801;SDS011;383;48.766;9.270;2023-06-24T02:39:06;10.43;;;5.60;;
801;SDS011;383;48.766;9.270;2023-06-24T02:41:33;10.20;;;6.07;;
801;SDS011;383;48.766;9.270;2023-06-24T02:43:59;9.50;;;5.10;;
801;SDS011;383;48.766;9.270;2023-06-24T02:46:26;10.07;;;6.23;;
801;SDS011;383;48.766;9.270;2023-06-24T02:48:54;9.60;;;5.53;;
801;SDS011;383;48.766;9.270;2023-06-24T02:51:23;9.83;;;5.80;;
801;SDS011;383;48.766;9.270;2023-06-24T02:53:51;12.50;;;6.27;;
801;SDS011;383;48.766;9.270;2023-06-24T02:56:18;9.80;;;5.47;;
801;SDS011;383;48.766;9.270;2023-06-24T02:58:47;8.80;;;5.53;;
801;SDS011;383;48.766;9.270;2023-06-24T03:01:15;11.10;;;6.00;;
801;SDS011;383;48.766;9.270;2023-06-24T03:03:43;8.70;;;6.20;;
801;SDS011;383;48.766;9.270;2023-06-24T03:06:14;8.93;;;5.77;;
801;SDS011;383;48.766;9.270;2023-06-24T03:08:42;9.30;;;5.50;;
801;SDS011;383;48.766;9.270;2023-06-24T03:11:13;10.97;;;5.90;;
801;SDS011;383;48.766;9.270;2023-06-24T03:13:40;11.30;;;6.93;;
801;SDS011;383;48.766;9.270;2023-06-24T03:16:06;7.53;;;6.00;;
801;SDS011;383;48.766;9.270;2023-06-24T03:18:37;14.60;;;7.03;;
801;SDS011;383;48.766;9.270;2023-06-24T03:21:04;10.23;;;6.30;;
801;SDS011;383;48.766;9.270;2023-06-24T03:23:31;10.60;;;6.57;;
801;SDS011;383;48.766;9.270;2023-06-24T03:25:57;11.80;;;6.87;;
801;SDS011;383;48.766;9.270;2023-06-24T03:28:25;11.07;;;6.67;;
801;SDS011;383;48.766;9.270;2023-06-24T03:30:52;9.67;;;6.30;;
801;SDS011;383;48.766;9.270;2023-06-24T03:33:19;10.97;;;6.43;;
801;SDS011;383;48.766;9.270;2023-06-24T03:35:45;11.13;;;6.77;;
801;SDS011;383;48.766;9.270;2023-06-24T03:38:12;12.37;;;6.17;;
801;SDS011;383;48.766;9.270;2023-06-24T03:40:39;11.70;;;6.40;;
801;SDS011;383;48.766;9.270;2023-06-24T03:43:05;10.30;;;6.90;;
801;SDS011;383;48.766;9.270;2023-06-24T03:45:33;13.27;;;7.43;;
801;SDS011;383;48.766;9.270;2023-06-24T03:48:00;11.60;;;7.80;;
801;SDS011;383;48.766;9.270;2023-06-24T03:50:27;10.60;;;6.93;;
801;SDS011;383;48.766;9.270;2023-06-24T03:52:53;9.20;;;7.53;;
801;SDS011;383;48.766;9.270;2023-06-24T03:55:20;12.13;;;6.90;;
801;SDS011;383;48.766;9.270;2023-06-24T03:57:47;16.27;;;8.33;;
801;SDS011;383;48.766;9.270;2023-06-24T04:00:14;9.77;;;6.70;;
801;SDS011;383;48.766;9.270;2023-06-24T04:02:43;11.23;;;6.83;;
801;SDS011;383;48.766;9.270;2023-06-24T04:05:10;11.53;;;7.50;;
801;SDS011;383;48.766;9.270;2023-06-24T04:07:36;14.47;;;6.90;;
801;SDS011;383;48.766;9.270;2023-06-24T04:10:04;9.77;;;6.40;;
801;SDS011;383;48.766;9.270;2023-06-24T04:12:33;14.60;;;7.93;;
801;SDS011;383;48.766;9.270;2023-06-24T04:15:00;15.63;;;8.17;;
801;SDS011;383;48.766;9.270;2023-06-24T04:17:28;11.47;;;7.10;;
801;SDS011;383;48.766;9.270;2023-06-24T04:19:56;12.53;;;8.10;;
801;SDS011;383;48.766;9.270;2023-06-24T04:22:23;15.27;;;7.67;;
801;SDS011;383;48.766;9.270;2023-06-24T04:24:50;11.80;;;8.03;;
801;SDS011;383;48.766;9.270;2023-06-24T04:27:17;32.90;;;7.87;;
801;SDS011;383;48.766;9.270;2023-06-24T04:29:44;11.37;;;7.40;;
801;SDS011;383;48.766;9.270;2023-06-24T04:32:11;11.57;;;7.57;;
801;SDS011;383;48.766;9.270;2023-06-24T04:34:37;11.63;;;7.60;;
801;SDS011;383;48.766;9.270;2023-06-24T04:37:06;11.53;;;6.60;;
801;SDS011;383;48.766;9.270;2023-06-24T04:39:33;11.13;;;7.10;;
801;SDS011;383;48.766;9.270;2023-06-24T04:42:00;12.07;;;7.60;;
801;SDS011;383;48.766;9.270;2023-06-24T04:44:26;14.80;;;8.33;;
801;SDS011;383;48.766;9.270;2023-06-24T04:46:53;10.30;;;7.50;;
801;SDS011;383;48.766;9.270;2023-06-24T04:49:20;11.77;;;7.17;;
801;SDS011;383;48.766;9.270;2023-06-24T04:51:46;11.50;;;7.23;;
801;SDS011;383;48.766;9.270;2023-06-24T04:54:14;16.77;;;7.90;;
801;SDS011;383;48.766;9.270;2023-06-24T04:56:42;13.80;;;8.63;;
801;SDS011;383;48.766;9.270;2023-06-24T04:59:10;18.93;;;10.03;;
801;SDS011;383;48.766;9.270;2023-06-24T05:01:36;17.73;;;7.63;;
801;SDS011;383;48.766;9.270;2023-06-24T05:04:03;12.83;;;8.13;;
801;SDS011;383;48.766;9.270;2023-06-24T05:06:30;12.67;;;7.70;;
801;SDS011;383;48.766;9.270;2023-06-24T05:08:56;13.23;;;8.03;;
801;SDS011;383;48.766;9.270;2023-06-24T05:11:24;11.83;;;7.17;;
801;SDS011;383;48.766;9.270;2023-06-24T05:13:51;11.23;;;7.23;;
801;SDS011;383;48.766;9.270;2023-06-24T05:16:18;12.63;;;7.63;;
801;SDS011;383;48.766;9.270;2023-06-24T05:18:45;12.90;;;7.27;;
801;SDS011;383;48.766;9.270;2023-06-24T05:21:11;15.37;;;7.80;;
801;SDS011;383;48.766;9.270;2023-06-24T05:23:38;10.77;;;7.37;;
801;SDS011;383;48.766;9.270;2023-06-24T05:26:05;12.00;;;7.73;;
801;SDS011;383;48.766;9.270;2023-06-24T05:28:33;12.07;;;7.77;;
801;SDS011;383;48.766;9.270;2023-06-24T05:30:59;13.37;;;7.63;;
801;SDS011;383;48.766;9.270;2023-06-24T05:33:26;16.00;;;8.20;;
801;SDS011;383;48.766;9.270;2023-06-24T05:35:53;12.20;;;7.07;;
801;SDS011;383;48.766;9.270;2023-06-24T05:38:20;10.80;;;6.83;;
801;SDS011;383;48.766;9.270;2023-06-24T05:40:47;9.20;;;6.33;;
801;SDS011;383;48.766;9.270;2023-06-24T05:43:14;10.67;;;6.47;;
801;SDS011;383;48.766;9.270;2023-06-24T05:45:42;11.67;;;7.00;;
801;SDS011;383;48.766;9.270;2023-06-24T05:48:08;13.43;;;6.20;;
801;SDS011;383;48.766;9.270;2023-06-24T05:50:35;10.50;;;6.47;;
801;SDS011;383;48.766;9.270;2023-06-24T05:53:02;9.27;;;5.80;;
801;SDS011;383;48.766;9.270;2023-06-24T05:55:28;8.53;;;6.33;;
801;SDS011;383;48.766;9.270;2023-06-24T05:57:55;13.10;;;6.40;;
801;SDS011;383;48.766;9.270;2023-06-24T06:00:22;9.17;;;6.47;;
801;SDS011;383;48.766;9.270;2023-06-24T06:02:50;14.73;;;7.47;;
801;SDS011;383;48.766;9.270;2023-06-24T06:05:16;10.17;;;6.97;;
801;SDS011;383;48.766;9.270;2023-06-24T06:07:44;11.83;;;6.43;;
801;SDS011;383;48.766;9.270;2023-06-24T06:10:11;10.23;;;7.03;;
801;SDS011;383;48.766;9.270;2023-06-24T06:12:40;13.77;;;7.97;;
801;SDS011;383;48.766;9.270;2023-06-24T06:15:07;14.13;;;6.33;;
801;SDS011;383;48.766;9.270;2023-06-24T06:17:35;10.80;;;6.73;;
801;SDS011;383;48.766;9.270;2023-06-24T06:20:03;11.03;;;6.80;;
801;SDS011;383;48.766;9.270;2023-06-24T06:22:31;12.07;;;7.07;;
801;SDS011;383;48.766;9.270;2023-06-24T06:25:02;10.87;;;5.90;;
801;SDS011;383;48.766;9.270;2023-06-24T06:27:30;9.83;;;6.63;;
801;SDS011;383;48.766;9.270;2023-06-24T06:29:57;10.67;;;6.97;;
801;SDS011;383;48.766;9.270;2023-06-24T06:32:23;13.90;;;7.07;;
801;SDS011;383;48.766;9.270;2023-06-24T06:34:50;12.00;;;7.27;;
801;SDS011;383;48.766;9.270;2023-06-24T06:37:18;13.80;;;6.13;;
801;SDS011;383;48.766;9.270;2023-06-24T06:39:45;11.17;;;6.27;;
801;SDS011;383;48.766;9.270;2023-06-24T06:42:11;10.30;;;6.33;;
801;SDS011;383;48.766;9.270;2023-06-24T06:44:39;13.60;;;6.00;;
801;SDS011;383;48.766;9.270;2023-06-24T06:47:06;10.43;;;6.23;;
801;SDS011;383;48.766;9.270;2023-06-24T06:49:33;11.87;;;5.67;;
801;SDS011;383;48.766;9.270;2023-06-24T06:52:00;13.60;;;5.40;;
801;SDS011;383;48.766;9.270;2023-06-24T06:54:28;10.00;;;5.80;;
801;SDS011;383;48.766;9.270;2023-06-24T06:56:55;13.60;;;5.80;;
801;SDS011;383;48.766;9.270;2023-06-24T06:59:26;8.07;;;5.30;;
801;SDS011;383;48.766;9.270;2023-06-24T07:01:53;10.60;;;5.47;;
801;SDS011;383;48.766;9.270;2023-06-24T07:04:19;14.03;;;5.97;;
801;SDS011;383;48.766;9.270;2023-06-24T07:06:46;6.70;;;4.73;;
801;SDS011;383;48.766;9.270;2023-06-24T07:09:13;9.00;;;5.10;;
801;SDS011;383;48.766;9.270;2023-06-24T07:11:41;9.77;;;5.20;;
801;SDS011;383;48.766;9.270;2023-06-24T07:14:08;8.63;;;4.60;;
801;SDS011;383;48.766;9.270;2023-06-24T07:16:35;7.10;;;5.10;;
801;SDS011;383;48.766;9.270;2023-06-24T07:19:02;7.10;;;5.20;;
801;SDS011;383;48.766;9.270;2023-06-24T07:21:29;11.63;;;4.97;;
801;SDS011;383;48.766;9.270;2023-06-24T07:23:55;7.47;;;5.13;;
801;SDS011;383;48.766;9.270;2023-06-24T07:26:22;10.50;;;5.10;;
801;SDS011;383;48.766;9.270;2023-06-24T07:28:50;12.07;;;7.60;;
801;SDS011;383;48.766;9.270;2023-06-24T07:31:18;8.93;;;5.87;;
801;SDS011;383;48.766;9.270;2023-06-24T07:33:44;12.33;;;7.27;;
801;SDS011;383;48.766;9.270;2023-06-24T07:36:11;12.20;;;6.00;;
801;SDS011;383;48.766;9.270;2023-06-24T07:38:39;8.20;;;4.80;;
801;SDS011;383;48.766;9.270;2023-06-24T07:41:06;11.40;;;5.43;;
801;SDS011;383;48.766;9.270;2023-06-24T07:43:32;8.17;;;4.80;;
801;SDS011;383;48.766;9.270;2023-06-24T07:46:00;8.07;;;4.70;;
801;SDS011;383;48.766;9.270;2023-06-24T07:48:28;8.53;;;5.17;;
801;SDS011;383;48.766;9.270;2023-06-24T07:50:54;6.57;;;4.40;;
801;SDS011;383;48.766;9.270;2023-06-24T07:53:21;7.13;;;4.60;;
801;SDS011;383;48.766;9.270;2023-06-24T07:55:48;8.57;;;5.33;;
801;SDS011;383;48.766;9.270;2023-06-24T07:58:14;6.83;;;4.57;;
801;SDS011;383;48.766;9.270;2023-06-24T08:00:41;6.73;;;4.40;;
801;SDS011;383;48.766;9.270;2023-06-24T08:03:09;6.27;;;4.20;;
801;SDS011;383;48.766;9.270;2023-06-24T08:05:36;8.73;;;4.33;;
801;SDS011;383;48.766;9.270;2023-06-24T08:08:04;6.57;;;4.57;;
801;SDS011;383;48.766;9.270;2023-06-24T08:10:31;9.20;;;5.13;;
801;SDS011;383;48.766;9.270;2023-06-24T08:12:57;8.40;;;5.13;;
801;SDS011;383;48.766;9.270;2023-06-24T08:15:24;7.50;;;4.70;;
801;SDS011;383;48.766;9.270;2023-06-24T08:17:51;8.43;;;4.60;;
801;SDS011;383;48.766;9.270;2023-06-24T08:20:19;10.00;;;4.70;;
801;SDS011;383;48.766;9.270;2023-06-24T08:22:46;17.30;;;4.60;;
801;SDS011;383;48.766;9.270;2023-06-24T08:25:13;7.50;;;4.80;;
801;SDS011;383;48.766;9.270;2023-06-24T08:27:40;8.23;;;5.10;;
801;SDS011;383;48.766;9.270;2023-06-24T08:30:08;6.50;;;4.50;;
801;SDS011;383;48.766;9.270;2023-06-24T08:32:36;5.67;;;4.77;;
801;SDS011;383;48.766;9.270;2023-06-24T08:35:03;10.00;;;4.80;;
801;SDS011;383;48.766;9.270;2023-06-24T08:37:32;7.23;;;5.23;;
801;SDS011;383;48.766;9.270;2023-06-24T08:39:58;6.47;;;3.77;;
801;SDS011;383;48.766;9.270;2023-06-24T08:42:25;6.70;;;4.00;;
801;SDS011;383;48.766;9.270;2023-06-24T08:44:52;4.40;;;3.30;;
801;SDS011;383;48.766;9.270;2023-06-24T08:47:19;6.10;;;4.47;;
801;SDS011;383;48.766;9.270;2023-06-24T08:49:46;6.00;;;4.43;;
801;SDS011;383;48.766;9.270;2023-06-24T08:52:15;5.77;;;4.43;;
801;SDS011;383;48.766;9.270;2023-06-24T08:54:45;5.20;;;4.07;;
801;SDS011;383;48.766;9.270;2023-06-24T08:57:14;5.97;;;4.07;;
801;SDS011;383;48.766;9.270;2023-06-24T08:59:41;5.80;;;4.13;;
801;SDS011;383;48.766;9.270;2023-06-24T09:02:08;4.87;;;3.33;;
801;SDS011;383;48.766;9.270;2023-06-24T09:04:36;4.30;;;3.33;;
801;SDS011;383;48.766;9.270;2023-06-24T09:07:03;6.70;;;4.50;;
801;SDS011;383;48.766;9.270;2023-06-24T09:09:30;6.07;;;4.30;;
801;SDS011;383;48.766;9.270;2023-06-24T09:11:58;5.70;;;3.90;;
801;SDS011;383;48.766;9.270;2023-06-24T09:14:27;6.40;;;4.60;;
801;SDS011;383;48.766;9.270;2023-06-24T09:16:56;5.27;;;4.00;;
801;SDS011;383;48.766;9.270;2023-06-24T09:19:24;6.57;;;4.40;;
801;SDS011;383;48.766;9.270;2023-06-24T09:21:54;10.27;;;4.60;;
801;SDS011;383;48.766;9.270;2023-06-24T09:24:26;7.90;;;4.40;;
801;SDS011;383;48.766;9.270;2023-06-24T09:26:55;4.40;;;4.10;;
801;SDS011;383;48.766;9.270;2023-06-24T09:29:26;5.90;;;3.90;;
801;SDS011;383;48.766;9.270;2023-06-24T09:31:54;9.73;;;4.33;;
801;SDS011;383;48.766;9.270;2023-06-24T09:34:23;7.77;;;4.13;;
801;SDS011;383;48.766;9.270;2023-06-24T09:36:51;6.33;;;4.13;;
801;SDS011;383;48.766;9.270;2023-06-24T09:39:19;7.90;;;4.03;;
801;SDS011;383;48.766;9.270;2023-06-24T09:41:48;3.87;;;3.40;;
801;SDS011;383;48.766;9.270;2023-06-24T09:44:15;6.07;;;3.67;;
801;SDS011;383;48.766;9.270;2023-06-24T09:46:45;5.53;;;3.97;;
801;SDS011;383;48.766;9.270;2023-06-24T09:49:13;5.40;;;3.50;;
801;SDS011;383;48.766;9.270;2023-06-24T09:51:40;5.20;;;3.90;;
801;SDS011;383;48.766;9.270;2023-06-24T09:54:10;5.67;;;3.80;;
801;SDS011;383;48.766;9.270;2023-06-24T09:56:39;4.73;;;3.57;;
801;SDS011;383;48.766;9.270;2023-06-24T09:59:08;6.83;;;4.00;;
801;SDS011;383;48.766;9.270;2023-06-24T10:01:38;6.90;;;3.77;;
801;SDS011;383;48.766;9.270;2023-06-24T10:04:07;7.30;;;4.00;;
801;SDS011;383;48.766;9.270;2023-06-24T10:06:34;9.00;;;4.20;;
801;SDS011;383;48.766;9.270;2023-06-24T10:09:01;5.97;;;4.40;;
801;SDS011;383;48.766;9.270;2023-06-24T10:11:28;7.40;;;4.00;;
801;SDS011;383;48.766;9.270;2023-06-24T10:13:56;5.90;;;3.93;;
801;SDS011;383;48.766;9.270;2023-06-24T10:16:23;6.00;;;3.90;;
801;SDS011;383;48.766;9.270;2023-06-24T10:18:49;7.03;;;4.40;;
801;SDS011;383;48.766;9.270;2023-06-24T10:21:17;6.80;;;4.60;;
801;SDS011;383;48.766;9.270;2023-06-24T10:23:50;5.20;;;3.53;;
801;SDS011;383;48.766;9.270;2023-06-24T10:26:22;4.00;;;3.10;;
801;SDS011;383;48.766;9.270;2023-06-24T10:34:26;6.07;;;3.43;;
801;SDS011;383;48.766;9.270;2023-06-24T10:36:55;6.70;;;4.13;;
801;SDS011;383;48.766;9.270;2023-06-24T10:39:40;6.53;;;4.40;;
801;SDS011;383;48.766;9.270;2023-06-24T10:45:15;4.80;;;3.93;;
801;SDS011;383;48.766;9.270;2023-06-24T10:47:44;5.10;;;3.40;;
801;SDS011;383;48.766;9.270;2023-06-24T10:50:13;4.87;;;3.60;;
801;SDS011;383;48.766;9.270;2023-06-24T10:52:42;7.10;;;4.07;;
801;SDS011;383;48.766;9.270;2023-06-24T10:55:10;4.60;;;3.13;;
801;SDS011;383;48.766;9.270;2023-06-24T10:57:39;4.77;;;3.50;;
801;SDS011;383;48.766;9.270;2023-06-24T11:00:06;7.60;;;3.97;;
801;SDS011;383;48.766;9.270;2023-06-24T11:02:33;5.00;;;3.50;;
801;SDS011;383;48.766;9.270;2023-06-24T11:05:02;5.50;;;4.03;;
801;SDS011;383;48.766;9.270;2023-06-24T11:07:30;9.10;;;3.90;;
801;SDS011;383;48.766;9.270;2023-06-24T11:10:02;4.13;;;3.10;;
801;SDS011;383;48.766;9.270;2023-06-24T11:12:30;5.27;;;3.97;;
801;SDS011;383;48.766;9.270;2023-06-24T11:14:59;6.77;;;3.80;;
801;SDS011;383;48.766;9.270;2023-06-24T11:17:27;5.80;;;4.10;;
801;SDS011;383;48.766;9.270;2023-06-24T11:19:54;5.50;;;3.63;;
801;SDS011;383;48.766;9.270;2023-06-24T11:22:22;4.87;;;3.63;;
801;SDS011;383;48.766;9.270;2023-06-24T11:24:48;6.00;;;4.30;;
801;SDS011;383;48.766;9.270;2023-06-24T11:27:23;5.07;;;3.80;;
801;SDS011;383;48.766;9.270;2023-06-24T11:29:51;4.53;;;3.97;;
801;SDS011;383;48.766;9.270;2023-06-24T11:32:18;4.67;;;3.47;;
801;SDS011;383;48.766;9.270;2023-06-24T11:34:46;4.70;;;3.50;;
801;SDS011;383;48.766;9.270;2023-06-24T11:37:13;6.83;;;3.50;;
801;SDS011;383;48.766;9.270;2023-06-24T11:39:41;6.10;;;3.67;;
801;SDS011;383;48.766;9.270;2023-06-24T11:42:09;5.40;;;3.80;;
801;SDS011;383;48.766;9.270;2023-06-24T11:44:40;8.10;;;3.90;;
801;SDS011;383;48.766;9.270;2023-06-24T11:47:08;5.27;;;3.80;;
801;SDS011;383;48.766;9.270;2023-06-24T11:49:49;8.23;;;3.93;;
801;SDS011;383;48.766;9.270;2023-06-24T11:52:17;6.13;;;3.87;;
801;SDS011;383;48.766;9.270;2023-06-24T11:54:43;8.30;;;3.50;;
801;SDS011;383;48.766;9.270;2023-06-24T11:57:10;4.30;;;3.77;;
801;SDS011;383;48.766;9.270;2023-06-24T11:59:39;5.27;;;3.93;;
801;SDS011;383;48.766;9.270;2023-06-24T12:02:05;8.90;;;3.80;;
801;SDS011;383;48.766;9.270;2023-06-24T12:04:32;6.23;;;3.77;;
801;SDS011;383;48.766;9.270;2023-06-24T12:07:00;6.07;;;4.33;;
801;SDS011;383;48.766;9.270;2023-06-24T12:09:27;3.50;;;3.10;;
801;SDS011;383;48.766;9.270;2023-06-24T12:11:54;4.30;;;3.33;;
801;SDS011;383;48.766;9.270;2023-06-24T12:14:21;4.40;;;3.40;;
801;SDS011;383;48.766;9.270;2023-06-24T12:16:49;5.43;;;3.77;;
801;SDS011;383;48.766;9.270;2023-06-24T12:19:16;5.00;;;3.83;;
801;SDS011;383;48.766;9.270;2023-06-24T12:21:42;5.77;;;4.20;;
801;SDS011;383;48.766;9.270;2023-06-24T12:24:09;5.60;;;4.23;;
801;SDS011;383;48.766;9.270;2023-06-24T12:26:36;4.63;;;3.73;;
801;SDS011;383;48.766;9.270;2023-06-24T12:29:03;3.93;;;3.23;;
801;SDS011;383;48.766;9.270;2023-06-24T12:31:30;6.40;;;3.87;;
801;SDS011;383;48.766;9.270;2023-06-24T12:33:58;5.00;;;3.70;;
801;SDS011;383;48.766;9.270;2023-06-24T12:36:24;6.20;;;3.53;;
801;SDS011;383;48.766;9.270;2023-06-24T12:38:51;5.30;;;3.60;;
801;SDS011;383;48.766;9.270;2023-06-24T12:41:18;5.83;;;3.93;;
801;SDS011;383;48.766;9.270;2023-06-24T12:43:44;6.80;;;4.43;;
801;SDS011;383;48.766;9.270;2023-06-24T12:46:11;6.20;;;3.77;;
801;SDS011;383;48.766;9.270;2023-06-24T12:48:38;5.43;;;3.70;;
801;SDS011;383;48.766;9.270;2023-06-24T12:51:06;4.50;;;3.30;;
801;SDS011;383;48.766;9.270;2023-06-24T12:53:33;3.80;;;3.33;;
801;SDS011;383;48.766;9.270;2023-06-24T12:55:59;4.20;;;3.27;;
801;SDS011;383;48.766;9.270;2023-06-24T12:58:26;4.10;;;3.00;;
801;SDS011;383;48.766;9.270;2023-06-24T13:00:53;5.17;;;3.53;;
801;SDS011;383;48.766;9.270;2023-06-24T13:03:19;5.50;;;3.73;;
801;SDS011;383;48.766;9.270;2023-06-24T13:05:46;6.50;;;3.57;;
801;SDS011;383;48.766;9.270;2023-06-24T13:08:14;6.83;;;4.23;;
801;SDS011;383;48.766;9.270;2023-06-24T13:10:41;4.23;;;3.20;;
801;SDS011;383;48.766;9.270;2023-06-24T13:13:07;5.77;;;3.80;;
801;SDS011;383;48.766;9.270;2023-06-24T13:15:34;9.80;;;3.73;;
801;SDS011;383;48.766;9.270;2023-06-24T13:18:01;6.37;;;3.80;;
801;SDS011;383;48.766;9.270;2023-06-24T13:20:28;4.90;;;3.50;;
801;SDS011;383;48.766;9.270;2023-06-24T13:22:55;5.30;;;3.57;;
801;SDS011;383;48.766;9.270;2023-06-24T13:25:23;7.40;;;4.13;;
801;SDS011;383;48.766;9.270;2023-06-24T13:27:49;8.63;;;4.00;;
801;SDS011;383;48.766;9.270;2023-06-24T13:30:16;4.47;;;3.47;;
801;SDS011;383;48.766;9.270;2023-06-24T13:32:43;6.70;;;3.40;;
801;SDS011;383;48.766;9.270;2023-06-24T13:35:10;7.63;;;3.90;;
801;SDS011;383;48.766;9.270;2023-06-24T13:37:36;5.70;;;4.20;;
801;SDS011;383;48.766;9.270;2023-06-24T13:40:04;4.40;;;3.73;;
801;SDS011;383;48.766;9.270;2023-06-24T13:42:33;5.37;;;3.63;;
801;SDS011;383;48.766;9.270;2023-06-24T13:45:00;5.63;;;4.23;;
801;SDS011;383;48.766;9.270;2023-06-24T13:47:27;9.70;;;3.37;;
801;SDS011;383;48.766;9.270;2023-06-24T13:49:54;5.50;;;3.77;;
801;SDS011;383;48.766;9.270;2023-06-24T13:52:21;6.00;;;3.63;;
801;SDS011;383;48.766;9.270;2023-06-24T13:54:47;4.40;;;3.70;;
801;SDS011;383;48.766;9.270;2023-06-24T13:57:15;5.87;;;3.37;;
801;SDS011;383;48.766;9.270;2023-06-24T13:59:43;6.60;;;3.97;;
801;SDS011;383;48.766;9.270;2023-06-24T14:02:10;5.73;;;3.43;;
801;SDS011;383;48.766;9.270;2023-06-24T14:04:36;7.53;;;4.00;;
801;SDS011;383;48.766;9.270;2023-06-24T14:07:04;6.13;;;3.87;;
801;SDS011;383;48.766;9.270;2023-06-24T14:09:31;5.07;;;3.07;;
801;SDS011;383;48.766;9.270;2023-06-24T14:11:58;7.53;;;4.10;;
801;SDS011;383;48.766;9.270;2023-06-24T14:14:25;5.90;;;3.40;;
801;SDS011;383;48.766;9.270;2023-06-24T14:16:53;5.03;;;4.10;;
801;SDS011;383;48.766;9.270;2023-06-24T14:19:19;4.60;;;3.50;;
801;SDS011;383;48.766;9.270;2023-06-24T14:21:46;4.80;;;3.57;;
801;SDS011;383;48.766;9.270;2023-06-24T14:24:13;5.10;;;3.73;;
801;SDS011;383;48.766;9.270;2023-06-24T14:26:39;6.23;;;3.50;;
801;SDS011;383;48.766;9.270;2023-06-24T14:29:06;5.23;;;4.30;;
801;SDS011;383;48.766;9.270;2023-06-24T14:31:33;5.10;;;3.60;;
801;SDS011;383;48.766;9.270;2023-06-24T14:34:01;7.97;;;4.67;;
801;SDS011;383;48.766;9.270;2023-06-24T14:36:28;6.03;;;4.10;;
801;SDS011;383;48.766;9.270;2023-06-24T14:38:54;4.53;;;3.73;;
801;SDS011;383;48.766;9.270;2023-06-24T14:41:21;4.83;;;3.60;;
801;SDS011;383;48.766;9.270;2023-06-24T14:43:48;4.63;;;3.40;;
801;SDS011;383;48.766;9.270;2023-06-24T14:46:14;6.70;;;4.37;;
801;SDS011;383;48.766;9.270;2023-06-24T14:48:41;4.50;;;3.50;;
801;SDS011;383;48.766;9.270;2023-06-24T14:51:09;6.63;;;3.97;;
801;SDS011;383;48.766;9.270;2023-06-24T14:53:36;5.30;;;3.73;;
801;SDS011;383;48.766;9.270;2023-06-24T14:56:02;17.30;;;3.70;;
801;SDS011;383;48.766;9.270;2023-06-24T14:58:30;6.20;;;4.13;;
801;SDS011;383;48.766;9.270;2023-06-24T15:00:56;5.50;;;4.00;;
801;SDS011;383;48.766;9.270;2023-06-24T15:03:23;6.43;;;4.20;;
801;SDS011;383;48.766;9.270;2023-06-24T15:05:49;15.63;;;5.50;;
801;SDS011;383;48.766;9.270;2023-06-24T15:08:17;4.07;;;3.57;;
801;SDS011;383;48.766;9.270;2023-06-24T15:10:44;5.27;;;3.80;;
801;SDS011;383;48.766;9.270;2023-06-24T15:13:11;4.30;;;3.27;;
801;SDS011;383;48.766;9.270;2023-06-24T15:15:37;4.20;;;3.47;;
801;SDS011;383;48.766;9.270;2023-06-24T15:18:04;5.53;;;3.40;;
801;SDS011;383;48.766;9.270;2023-06-24T15:20:31;5.70;;;4.03;;
801;SDS011;383;48.766;9.270;2023-06-24T15:22:57;5.53;;;3.90;;
801;SDS011;383;48.766;9.270;2023-06-24T15:25:25;6.37;;;4.77;;
801;SDS011;383;48.766;9.270;2023-06-24T15:27:52;7.13;;;4.70;;
801;SDS011;383;48.766;9.270;2023-06-24T15:30:19;7.47;;;6.57;;
801;SDS011;383;48.766;9.270;2023-06-24T15:32:46;8.30;;;3.60;;
801;SDS011;383;48.766;9.270;2023-06-24T15:35:13;4.60;;;3.30;;
801;SDS011;383;48.766;9.270;2023-06-24T15:37:40;5.93;;;4.30;;
801;SDS011;383;48.766;9.270;2023-06-24T15:40:07;4.70;;;3.87;;
801;SDS011;383;48.766;9.270;2023-06-24T15:42:36;5.13;;;3.67;;
801;SDS011;383;48.766;9.270;2023-06-24T15:45:03;4.60;;;3.90;;
801;SDS011;383;48.766;9.270;2023-06-24T15:47:30;4.63;;;3.37;;
801;SDS011;383;48.766;9.270;2023-06-24T15:49:57;5.63;;;4.30;;
801;SDS011;383;48.766;9.270;2023-06-24T15:52:24;5.00;;;3.40;;
801;SDS011;383;48.766;9.270;2023-06-24T15:54:50;5.30;;;3.80;;